This is the latest recevied weather packets stored in our database for station/object DB0RV-13. If no packets are shown the sender has not sent any weather packets the latest 10 day(s).
| Time | Temp. | Humidity | Pressure | Rain* | Wind** | Luminosity | Snow |
|---|---|---|---|---|---|---|---|
| 1777932902 | 11.67° C | 79% | 1011.5 hPa | - | - | - | - |
| 1777932601 | 11.67° C | 78% | 1011.6 hPa | - | - | - | - |
| 1777932302 | 12.22° C | 77% | 1011.5 hPa | - | - | - | - |
| 1777932002 | 12.22° C | 75% | 1011.7 hPa | - | - | - | - |
| 1777931701 | 12.22° C | 75% | 1011.5 hPa | - | - | - | - |
| 1777931402 | 12.22° C | 74% | 1011.7 hPa | - | - | - | - |
| 1777931102 | 12.22° C | 73% | 1011.5 hPa | - | - | - | - |
| 1777930801 | 12.22° C | 73% | 1011.6 hPa | - | - | - | - |
| 1777930502 | 12.78° C | 72% | 1011.5 hPa | - | - | - | - |
| 1777930202 | 12.78° C | 71% | 1011.6 hPa | - | - | - | - |
| 1777929901 | 12.78° C | 70% | 1011.6 hPa | - | - | - | - |
| 1777929602 | 12.78° C | 69% | 1011.7 hPa | - | - | - | - |
| 1777929302 | 12.78° C | 68% | 1011.7 hPa | - | - | - | - |
| 1777929001 | 12.78° C | 66% | 1011.7 hPa | - | - | - | - |
| 1777928702 | 13.33° C | 61% | 1011.6 hPa | - | - | - | - |
| 1777928403 | 14.44° C | 57% | 1011.8 hPa | - | - | - | - |
| 1777928101 | 14.44° C | 54% | 1011.6 hPa | - | - | - | - |
| 1777927802 | 15.56° C | 50% | 1011.6 hPa | - | - | - | - |
| 1777927505 | 15° C | 51% | 1011.7 hPa | - | - | - | - |
| 1777927201 | 16.11° C | 48% | 1011.7 hPa | - | - | - | - |
| 1777926903 | 15° C | 50% | 1011.6 hPa | - | - | - | - |
| 1777926602 | 16.11° C | 48% | 1011.6 hPa | - | - | - | - |
| 1777926301 | 15° C | 52% | 1011.6 hPa | - | - | - | - |
| 1777926002 | 16.11° C | 48% | 1011.5 hPa | - | - | - | - |
| 1777925702 | 16.11° C | 47% | 1011.5 hPa | - | - | - | - |
* Rain since midnight (hover to see other rain measurements)
** Current wind speed in m/s (hover to see current wind gust speed)